Biloxi, Mississippi
Current Conditions -  °F | °C
As of 7:58 PM on Saturday 22 Nov 2014 (Local Time) from KBIX Reporting Station
Overcast Overcast  
Wind Chill: 62°   Ceiling: 700
Heat Index: 62°   Visibility: 10mi
Dew Point: 61°   Wind: 12mph
Humidity: 95%   Direction: 100°E
Pressure: 30.03"   Gusts: NA
Location:  30.4°N, 88.97°W
Report Text: KBIX 230158Z AUTO 10010KT 10SM OVC007 17/16 A3003 RMK AO2 SLP172 T01670159
Loading
Personal Weather Stations






























Interactive Weather Map New forecast layout! Learn more

10-Day Weather Forecast

Advertisements
Track Severe Weather on mobile